Terminal Aerodrome Forecast
Issued by NWS Twin Cities, MN

Home | Current Version | Previous Version | Graphics & Text | Print | Product List | Glossary On
Versions: 1 2 3 4 5 6 7 8 9 10 11 12 13 14 15 16 17 18 19 20 21 22 23 24 25 26 27 28
637
FTUS43 KMPX 281457 AAA
TAFMSP
TAF AMD
KMSP 281457Z 2815/2918 02007KT P6SM OVC008
     FM281800 03010KT P6SM OVC020
     FM282200 04005KT P6SM SCT025 OVC050=

USA.gov is the U.S. government's official web portal to all federal, state and local government web resources and services.